createdAt,value
2022-11-13T00:00:55.415Z,68.83
2022-11-13T00:02:16.497Z,68.82
2022-11-13T00:03:40.287Z,68.84
2022-11-13T00:05:01.060Z,68.67
2022-11-13T00:06:21.963Z,68.83
2022-11-13T00:07:42.658Z,68.78
2022-11-13T00:09:06.262Z,68.63
2022-11-13T00:10:27.195Z,68.63
2022-11-13T00:11:47.974Z,68.60
2022-11-13T00:13:08.778Z,68.54
2022-11-13T00:14:29.613Z,68.56
2022-11-13T00:15:58.067Z,68.63
2022-11-13T00:17:18.887Z,68.57
2022-11-13T00:18:40.005Z,68.66
2022-11-13T00:20:00.539Z,68.57
2022-11-13T00:21:25.643Z,68.63
2022-11-13T00:22:47.499Z,68.77
2022-11-13T00:24:08.644Z,68.64
2022-11-13T00:25:29.071Z,68.77
2022-11-13T00:26:49.850Z,68.66
2022-11-13T00:28:10.306Z,68.61
2022-11-13T00:29:30.708Z,68.81
2022-11-13T00:30:51.445Z,68.66
2022-11-13T00:32:12.129Z,68.81
2022-11-13T00:35:15.330Z,68.71
2022-11-13T00:36:35.928Z,68.82
2022-11-13T00:37:56.461Z,69.03
2022-11-13T00:39:17.076Z,68.90
2022-11-13T00:40:37.932Z,68.98
2022-11-13T00:41:58.626Z,69.00
2022-11-13T00:43:19.319Z,68.93
2022-11-13T00:44:40.027Z,68.82
2022-11-13T00:46:00.992Z,69.03
2022-11-13T00:47:21.684Z,68.77
2022-11-13T00:48:42.662Z,68.96
2022-11-13T00:50:03.439Z,68.98
2022-11-13T00:51:24.447Z,68.96
2022-11-13T00:52:45.194Z,69.03
2022-11-13T00:54:09.419Z,68.96
2022-11-13T00:55:31.173Z,68.82
2022-11-13T00:56:51.947Z,69.06
2022-11-13T00:58:13.833Z,69.08
2022-11-13T00:59:34.444Z,69.05
2022-11-13T01:00:55.593Z,69.24
2022-11-13T01:02:19.555Z,69.24
2022-11-13T01:03:40.838Z,69.18
2022-11-13T01:05:02.806Z,69.11
2022-11-13T01:06:31.394Z,69.17
2022-11-13T01:07:52.503Z,68.92
2022-11-13T01:09:13.311Z,68.98
2022-11-13T01:10:38.401Z,68.98
2022-11-13T01:11:59.418Z,68.94
2022-11-13T01:13:20.343Z,68.97
2022-11-13T01:14:41.483Z,69.09
2022-11-13T01:16:06.481Z,69.08
2022-11-13T01:17:27.481Z,69.13
2022-11-13T01:18:48.293Z,69.22
2022-11-13T01:20:09.760Z,69.24
2022-11-13T01:21:33.151Z,69.21
2022-11-13T01:22:53.981Z,69.24
2022-11-13T01:24:14.747Z,69.14
2022-11-13T01:25:38.310Z,69.19
2022-11-13T01:26:59.175Z,69.24
2022-11-13T01:28:20.032Z,69.20
2022-11-13T01:29:40.467Z,69.17
2022-11-13T01:31:01.154Z,69.21
2022-11-13T01:32:22.054Z,69.21
2022-11-13T01:33:46.528Z,69.24
2022-11-13T01:35:07.654Z,69.31
2022-11-13T01:36:29.365Z,69.34
2022-11-13T01:37:50.079Z,69.33
2022-11-13T01:39:12.349Z,69.31
2022-11-13T01:40:32.969Z,69.38
2022-11-13T01:41:53.845Z,69.33
2022-11-13T01:43:25.901Z,69.38
2022-11-13T01:44:52.562Z,69.21
2022-11-13T01:46:17.813Z,69.32
2022-11-13T01:47:38.611Z,69.08
2022-11-13T01:49:02.218Z,69.02
2022-11-13T01:50:23.202Z,68.79
2022-11-13T01:51:52.824Z,69.08
2022-11-13T01:53:13.878Z,69.01
2022-11-13T01:54:39.604Z,69.09
2022-11-13T01:56:00.737Z,68.92
2022-11-13T01:57:22.057Z,68.66
2022-11-13T01:58:46.436Z,68.70
2022-11-13T02:00:10.483Z,68.57
2022-11-13T02:01:31.877Z,68.57
2022-11-13T02:02:52.914Z,68.42
2022-11-13T02:04:13.670Z,68.37
2022-11-13T02:05:34.190Z,68.17
2022-11-13T02:07:01.919Z,68.27
2022-11-13T02:08:23.486Z,68.29
2022-11-13T02:09:47.485Z,68.15
2022-11-13T02:11:08.181Z,68.13
2022-11-13T02:12:36.037Z,68.13
2022-11-13T02:13:56.960Z,68.00
2022-11-13T02:15:21.547Z,68.14
2022-11-13T02:16:45.503Z,68.26
2022-11-13T02:18:07.063Z,68.11
2022-11-13T02:19:41.270Z,68.47
2022-11-13T02:21:12.389Z,68.47
2022-11-13T02:22:47.590Z,68.41
2022-11-13T02:24:19.210Z,68.56
2022-11-13T02:25:42.225Z,68.49
2022-11-13T02:27:07.744Z,68.66
2022-11-13T02:28:28.454Z,68.80
2022-11-13T02:29:49.345Z,68.62
2022-11-13T02:31:12.989Z,68.77
2022-11-13T02:32:34.067Z,68.66
2022-11-13T02:33:55.129Z,68.96
2022-11-13T02:35:19.501Z,69.02
2022-11-13T02:36:42.671Z,68.97
2022-11-13T02:38:05.954Z,68.97
2022-11-13T02:39:26.691Z,68.88
2022-11-13T02:40:47.277Z,68.95
2022-11-13T02:42:07.894Z,68.88
2022-11-13T02:43:28.523Z,68.91
2022-11-13T02:44:49.715Z,68.98
2022-11-13T02:46:10.460Z,69.10
2022-11-13T02:47:39.127Z,69.00
2022-11-13T02:49:00.211Z,69.10
2022-11-13T02:50:20.994Z,69.03
2022-11-13T02:51:42.212Z,69.04
2022-11-13T02:53:04.466Z,69.29
2022-11-13T02:54:25.767Z,69.15
2022-11-13T02:55:46.343Z,69.01
2022-11-13T02:57:06.721Z,68.81
2022-11-13T02:58:27.737Z,68.94
2022-11-13T02:59:48.816Z,68.94
2022-11-13T03:01:09.482Z,68.95
2022-11-13T03:02:30.051Z,68.74
2022-11-13T03:03:58.423Z,68.91
2022-11-13T03:05:19.756Z,68.72
2022-11-13T03:06:41.355Z,68.85
2022-11-13T03:08:02.284Z,68.90
2022-11-13T03:09:26.040Z,68.65
2022-11-13T03:10:47.349Z,68.98
2022-11-13T03:12:09.666Z,68.95
2022-11-13T03:13:30.500Z,68.89
2022-11-13T03:14:53.866Z,69.01
2022-11-13T03:16:17.041Z,69.07
2022-11-13T03:17:38.141Z,69.19
2022-11-13T03:19:00.301Z,68.99
2022-11-13T03:20:21.441Z,69.14
2022-11-13T03:21:42.156Z,69.07
2022-11-13T03:23:03.993Z,69.06
2022-11-13T03:24:24.569Z,69.07
2022-11-13T03:25:45.357Z,69.09
2022-11-13T03:27:05.931Z,69.07
2022-11-13T03:28:26.776Z,69.17
2022-11-13T03:29:48.312Z,69.29
2022-11-13T03:31:09.559Z,69.11
2022-11-13T03:32:30.144Z,69.14
2022-11-13T03:33:53.472Z,69.44
2022-11-13T03:35:14.288Z,69.55
2022-11-13T03:36:34.828Z,69.47
2022-11-13T03:37:55.750Z,69.33
2022-11-13T03:39:16.790Z,69.46
2022-11-13T03:40:37.256Z,69.68
2022-11-13T03:41:57.923Z,69.60
2022-11-13T03:43:19.879Z,69.72
2022-11-13T03:44:43.452Z,69.72
2022-11-13T03:46:11.549Z,69.85
2022-11-13T03:47:32.618Z,69.77
2022-11-13T03:48:53.386Z,69.67
2022-11-13T03:50:14.142Z,69.83
2022-11-13T03:51:34.652Z,69.60
2022-11-13T03:52:55.626Z,69.79
2022-11-13T03:54:16.567Z,69.64
2022-11-13T03:55:37.647Z,69.80
2022-11-13T03:56:59.251Z,69.70
2022-11-13T03:58:21.055Z,69.68
2022-11-13T03:59:42.253Z,69.57
2022-11-13T04:01:02.872Z,69.65
2022-11-13T04:02:23.734Z,69.73
2022-11-13T04:03:47.366Z,69.77
2022-11-13T04:05:11.548Z,69.55
2022-11-13T04:06:34.804Z,69.43
2022-11-13T04:07:55.592Z,69.53
2022-11-13T04:09:19.411Z,69.46
2022-11-13T04:10:40.645Z,69.44
2022-11-13T04:12:01.649Z,69.45
2022-11-13T04:13:22.081Z,69.42
2022-11-13T04:14:43.056Z,69.47
2022-11-13T04:16:04.983Z,69.50
2022-11-13T04:17:25.572Z,69.39
2022-11-13T04:18:46.179Z,69.41
2022-11-13T04:20:07.685Z,69.42
2022-11-13T04:21:28.626Z,69.46
2022-11-13T04:22:49.368Z,69.42
2022-11-13T04:24:10.041Z,69.40
2022-11-13T04:25:30.892Z,69.34
2022-11-13T04:26:51.610Z,69.51
2022-11-13T04:28:12.526Z,69.47
2022-11-13T04:29:33.023Z,69.48
2022-11-13T04:30:54.929Z,69.38
2022-11-13T04:32:15.738Z,69.25
2022-11-13T04:33:36.225Z,69.25
2022-11-13T04:34:56.856Z,69.21
2022-11-13T04:36:17.663Z,69.18
2022-11-13T04:37:38.867Z,68.96
2022-11-13T04:38:59.953Z,68.91
2022-11-13T04:40:20.565Z,68.86
2022-11-13T04:42:00.200Z,68.81
2022-11-13T04:43:21.110Z,68.68
2022-11-13T04:44:46.971Z,68.63
2022-11-13T04:46:07.941Z,68.55
2022-11-13T04:47:28.603Z,68.60
2022-11-13T04:48:52.249Z,68.43
2022-11-13T04:50:16.658Z,68.48
2022-11-13T04:51:37.573Z,68.30
2022-11-13T04:52:58.234Z,68.22
2022-11-13T04:54:21.997Z,68.18
2022-11-13T04:55:44.995Z,67.94
2022-11-13T04:57:05.931Z,68.13
2022-11-13T04:58:30.053Z,68.04
2022-11-13T04:59:50.945Z,67.95
2022-11-13T05:01:12.156Z,67.85
2022-11-13T05:02:32.929Z,67.86
2022-11-13T05:03:55.820Z,67.74
2022-11-13T05:05:16.873Z,67.82
2022-11-13T05:06:38.182Z,67.64
2022-11-13T05:07:59.072Z,67.59
2022-11-13T05:09:19.989Z,67.54
2022-11-13T05:10:43.856Z,67.57
2022-11-13T05:12:08.053Z,67.55
2022-11-13T05:13:33.274Z,67.50
2022-11-13T05:14:54.074Z,67.34
2022-11-13T05:16:17.792Z,67.34
2022-11-13T05:17:38.729Z,67.49
2022-11-13T05:18:59.531Z,67.41
2022-11-13T05:20:28.690Z,67.41
2022-11-13T05:21:49.496Z,67.37
2022-11-13T05:23:10.302Z,67.48
2022-11-13T05:24:31.572Z,67.39
2022-11-13T05:25:52.452Z,67.33
2022-11-13T05:27:17.257Z,67.37
2022-11-13T05:28:39.761Z,67.22
2022-11-13T05:30:00.828Z,67.39
2022-11-13T05:31:21.756Z,67.25
2022-11-13T05:32:42.565Z,67.25
2022-11-13T05:34:06.056Z,67.37
2022-11-13T05:35:26.916Z,67.34
2022-11-13T05:36:47.821Z,67.60
2022-11-13T05:38:17.470Z,67.49
2022-11-13T05:39:38.412Z,67.43
2022-11-13T05:41:19.686Z,67.33
2022-11-13T05:42:40.517Z,67.51
2022-11-13T05:44:01.253Z,67.46
2022-11-13T05:45:22.278Z,67.36
2022-11-13T05:46:42.732Z,67.47
2022-11-13T05:48:03.720Z,67.40
2022-11-13T05:49:27.563Z,67.33
2022-11-13T05:50:48.061Z,67.52
2022-11-13T05:52:08.856Z,67.48
2022-11-13T05:53:29.672Z,67.54
2022-11-13T05:54:50.584Z,67.56
2022-11-13T05:56:22.781Z,67.49
2022-11-13T05:57:43.654Z,67.51
2022-11-13T05:59:05.583Z,67.63
2022-11-13T06:00:26.305Z,67.70
2022-11-13T06:01:47.026Z,67.57
2022-11-13T06:03:08.070Z,67.42
2022-11-13T06:04:29.066Z,67.45
2022-11-13T06:05:49.914Z,67.71
2022-11-13T06:07:10.762Z,67.66
2022-11-13T06:08:31.805Z,67.61
2022-11-13T06:09:52.926Z,67.75
2022-11-13T06:11:16.735Z,67.71
2022-11-13T06:12:37.596Z,67.62
2022-11-13T06:13:59.458Z,67.68
2022-11-13T06:15:22.657Z,67.82
2022-11-13T06:16:50.883Z,67.68
2022-11-13T06:18:11.569Z,67.73
2022-11-13T06:19:34.985Z,67.66
2022-11-13T06:20:56.363Z,67.85
2022-11-13T06:22:17.193Z,67.79
2022-11-13T06:23:38.965Z,67.80
2022-11-13T06:24:59.464Z,67.89
2022-11-13T06:26:26.070Z,67.73
2022-11-13T06:27:49.733Z,67.86
2022-11-13T06:29:11.916Z,67.87
2022-11-13T06:30:35.537Z,68.02
2022-11-13T06:31:56.004Z,67.97
2022-11-13T06:33:16.969Z,68.01
2022-11-13T06:34:37.665Z,67.89
2022-11-13T06:36:02.078Z,67.93
2022-11-13T06:37:22.650Z,68.00
2022-11-13T06:38:48.102Z,68.17
2022-11-13T06:40:09.490Z,68.04
2022-11-13T06:41:31.423Z,68.13
2022-11-13T06:42:52.979Z,68.15
2022-11-13T06:44:14.203Z,68.01
2022-11-13T06:45:36.295Z,68.22
2022-11-13T06:46:57.066Z,68.23
2022-11-13T06:48:17.819Z,68.05
2022-11-13T06:49:38.668Z,68.26
2022-11-13T06:51:04.354Z,68.44
2022-11-13T06:52:25.158Z,68.28
2022-11-13T06:53:46.444Z,68.42
2022-11-13T06:55:07.852Z,68.47
2022-11-13T06:56:28.671Z,68.59
2022-11-13T06:57:49.655Z,68.47
2022-11-13T06:59:10.449Z,68.45
2022-11-13T07:00:36.352Z,68.60
2022-11-13T07:01:58.377Z,68.68
2022-11-13T07:03:27.021Z,68.70
2022-11-13T07:04:47.770Z,68.77
2022-11-13T07:06:20.656Z,68.68
2022-11-13T07:07:41.088Z,68.78
2022-11-13T07:09:01.961Z,68.67
2022-11-13T07:10:25.741Z,68.72
2022-11-13T07:11:46.393Z,68.88
2022-11-13T07:13:07.971Z,68.81
2022-11-13T07:14:28.810Z,69.00
2022-11-13T07:15:49.578Z,69.14
2022-11-13T07:17:10.763Z,69.15
2022-11-13T07:18:32.596Z,69.32
2022-11-13T07:19:53.552Z,69.46
2022-11-13T07:21:14.582Z,69.68
2022-11-13T07:22:36.140Z,70.03
2022-11-13T07:23:59.324Z,70.42
2022-11-13T07:25:20.043Z,70.73
2022-11-13T07:26:40.767Z,70.84
2022-11-13T07:28:04.505Z,70.78
2022-11-13T07:29:25.394Z,71.06
2022-11-13T07:30:49.196Z,70.93
2022-11-13T07:32:09.904Z,70.63
2022-11-13T07:33:30.772Z,70.30
2022-11-13T07:34:51.965Z,69.88
2022-11-13T07:36:14.854Z,69.64
2022-11-13T07:37:35.707Z,69.23
2022-11-13T07:39:00.134Z,69.10
2022-11-13T07:40:21.517Z,68.83
2022-11-13T07:41:42.372Z,68.87
2022-11-13T07:43:03.871Z,68.70
2022-11-13T07:44:53.126Z,68.12
2022-11-13T07:46:10.621Z,67.29
2022-11-13T07:47:31.204Z,66.89
2022-11-13T07:48:51.764Z,66.52
2022-11-13T07:50:15.213Z,66.01
2022-11-13T07:51:36.082Z,65.68
2022-11-13T07:53:02.517Z,65.44
2022-11-13T07:54:23.489Z,65.36
2022-11-13T07:55:44.263Z,65.25
2022-11-13T07:57:05.129Z,65.15
2022-11-13T07:58:26.223Z,64.80
2022-11-13T07:59:47.482Z,64.61
2022-11-13T08:01:08.505Z,64.29
2022-11-13T08:02:32.028Z,63.58
2022-11-13T08:03:52.548Z,63.27
2022-11-13T08:05:14.052Z,63.12
2022-11-13T08:06:37.405Z,62.92
2022-11-13T08:08:01.805Z,62.18
2022-11-13T08:09:22.780Z,62.17
2022-11-13T08:10:43.909Z,61.77
2022-11-13T08:12:05.370Z,61.30
2022-11-13T08:13:33.151Z,61.22
2022-11-13T08:14:54.080Z,60.96
2022-11-13T08:16:22.111Z,60.79
2022-11-13T08:17:42.845Z,60.48
2022-11-13T08:19:03.885Z,60.27
2022-11-13T08:20:26.643Z,59.89
2022-11-13T08:21:47.418Z,59.88
2022-11-13T08:23:08.175Z,59.85
2022-11-13T08:24:28.998Z,59.62
2022-11-13T08:25:50.079Z,59.53
2022-11-13T08:27:11.068Z,59.33
2022-11-13T08:28:40.885Z,58.96
2022-11-13T08:30:02.664Z,58.70
2022-11-13T08:31:23.669Z,58.22
2022-11-13T08:32:46.903Z,58.00
2022-11-13T08:34:07.616Z,57.86
2022-11-13T08:35:29.631Z,57.74
2022-11-13T08:36:50.352Z,57.33
2022-11-13T08:38:11.240Z,57.24
2022-11-13T08:39:32.116Z,56.87
2022-11-13T08:40:57.136Z,56.52
2022-11-13T08:42:17.750Z,56.62
2022-11-13T08:43:39.115Z,56.35
2022-11-13T08:45:00.353Z,55.76
2022-11-13T08:46:23.232Z,55.35
2022-11-13T08:47:46.750Z,55.16
2022-11-13T08:49:07.604Z,55.03
2022-11-13T08:50:29.117Z,54.52
2022-11-13T08:51:49.585Z,54.67
2022-11-13T08:53:10.215Z,54.63
2022-11-13T08:54:31.278Z,54.04
2022-11-13T08:55:54.476Z,54.09
2022-11-13T08:57:18.265Z,53.78
2022-11-13T08:58:39.207Z,53.73
2022-11-13T08:59:59.816Z,53.65
2022-11-13T09:01:23.502Z,53.40
2022-11-13T09:02:46.887Z,52.89
2022-11-13T09:04:10.059Z,53.01
2022-11-13T09:05:30.872Z,52.64
2022-11-13T09:06:52.641Z,52.68
2022-11-13T09:08:13.694Z,52.60
2022-11-13T09:09:34.672Z,52.28
2022-11-13T09:10:55.675Z,51.83
2022-11-13T09:12:16.169Z,51.68
2022-11-13T09:13:42.760Z,51.19
2022-11-13T09:15:05.652Z,51.30
2022-11-13T09:16:26.544Z,51.29
2022-11-13T09:17:47.601Z,51.42
2022-11-13T09:19:08.466Z,50.56
2022-11-13T09:20:30.535Z,50.19
2022-11-13T09:21:52.187Z,50.04
2022-11-13T09:23:13.220Z,49.76
2022-11-13T09:24:34.123Z,50.07
2022-11-13T09:25:55.327Z,50.36
2022-11-13T09:27:16.525Z,49.79
2022-11-13T09:28:37.438Z,49.55
2022-11-13T09:29:58.175Z,49.96
2022-11-13T09:31:22.169Z,49.25
2022-11-13T09:32:42.860Z,49.20
2022-11-13T09:34:03.424Z,49.21
2022-11-13T09:35:34.867Z,48.98
2022-11-13T09:36:55.806Z,49.54
2022-11-13T09:38:16.513Z,49.35
2022-11-13T09:39:36.996Z,48.93
2022-11-13T09:41:01.017Z,48.61
2022-11-13T09:42:26.552Z,48.69
2022-11-13T09:43:59.518Z,48.56
2022-11-13T09:45:20.698Z,48.66
2022-11-13T09:46:47.683Z,48.64
2022-11-13T09:48:30.909Z,49.16
2022-11-13T09:50:05.915Z,49.25
2022-11-13T09:51:33.492Z,48.83
2022-11-13T09:52:54.941Z,49.05
2022-11-13T09:54:16.172Z,48.81
2022-11-13T09:55:45.553Z,48.91
2022-11-13T09:57:34.562Z,48.88
2022-11-13T09:59:00.914Z,48.79
2022-11-13T10:00:22.574Z,48.81
2022-11-13T10:01:48.877Z,48.45
2022-11-13T10:03:59.805Z,48.52
2022-11-13T10:05:46.288Z,48.53
2022-11-13T10:07:41.430Z,49.06
2022-11-13T10:11:20.219Z,48.55
2022-11-13T10:12:42.227Z,48.58
2022-11-13T10:14:23.721Z,48.31
2022-11-13T10:15:46.383Z,48.50
2022-11-13T10:17:16.963Z,48.61
2022-11-13T10:18:40.091Z,48.73
2022-11-13T10:20:09.178Z,48.45
2022-11-13T10:21:37.314Z,48.32
2022-11-13T10:23:11.879Z,48.73
2022-11-13T10:25:03.061Z,48.57
2022-11-13T10:26:29.591Z,48.25
2022-11-13T10:28:00.161Z,48.40
2022-11-13T10:29:21.051Z,48.20
2022-11-13T10:30:43.994Z,48.35
2022-11-13T10:32:27.823Z,48.63
2022-11-13T10:33:48.592Z,48.37
2022-11-13T10:35:17.667Z,48.52
2022-11-13T10:37:03.797Z,48.75
2022-11-13T10:38:31.275Z,48.70
2022-11-13T10:39:52.050Z,48.69
2022-11-13T10:41:21.856Z,48.58
2022-11-13T10:42:42.366Z,48.72
2022-11-13T10:44:08.195Z,48.05
2022-11-13T10:45:31.299Z,48.08
2022-11-13T10:46:52.362Z,48.26
2022-11-13T10:48:28.133Z,48.09
2022-11-13T10:49:49.418Z,48.08
2022-11-13T10:51:35.407Z,48.26
2022-11-13T10:52:57.772Z,47.90
2022-11-13T10:54:31.699Z,48.08
2022-11-13T10:55:57.197Z,47.99
2022-11-13T10:57:38.044Z,48.27
2022-11-13T10:59:04.127Z,48.16
2022-11-13T11:00:27.847Z,48.04
2022-11-13T11:01:50.211Z,48.16
2022-11-13T11:03:23.903Z,48.29
2022-11-13T11:04:47.763Z,48.21
2022-11-13T11:06:14.172Z,48.25
2022-11-13T11:07:41.024Z,48.34
2022-11-13T11:09:23.776Z,48.58
2022-11-13T11:11:18.124Z,48.67
2022-11-13T11:12:39.028Z,48.75
2022-11-13T11:14:21.340Z,48.68
2022-11-13T11:15:48.817Z,48.57
2022-11-13T11:17:13.225Z,48.90
2022-11-13T11:18:37.360Z,48.93
2022-11-13T11:20:26.167Z,48.86
2022-11-13T11:21:50.131Z,48.40
2022-11-13T11:23:25.498Z,48.60
2022-11-13T11:25:01.986Z,48.79
2022-11-13T11:26:30.562Z,48.55
2022-11-13T11:28:09.675Z,48.68
2022-11-13T11:29:59.277Z,48.65
2022-11-13T11:31:38.233Z,49.00
2022-11-13T11:33:30.790Z,49.24
2022-11-13T11:35:00.075Z,49.21
2022-11-13T11:36:49.965Z,48.97
2022-11-13T11:38:33.057Z,49.18
2022-11-13T11:40:00.361Z,49.07
2022-11-13T11:41:26.365Z,49.21
2022-11-13T11:43:16.243Z,49.45
2022-11-13T11:44:49.214Z,49.51
2022-11-13T11:46:16.147Z,49.21
2022-11-13T11:47:39.361Z,49.33
2022-11-13T11:49:01.984Z,49.33
2022-11-13T11:50:54.880Z,49.66
2022-11-13T11:52:49.359Z,49.58
2022-11-13T11:54:28.522Z,49.54
2022-11-13T11:56:09.244Z,49.40
2022-11-13T11:57:54.221Z,49.54
2022-11-13T11:59:55.326Z,49.80
2022-11-13T12:01:37.691Z,49.90
2022-11-13T12:03:09.059Z,49.82
2022-11-13T12:04:35.721Z,49.82
2022-11-13T12:06:15.064Z,50.07
2022-11-13T12:08:09.405Z,50.22
2022-11-13T12:09:49.862Z,50.19
2022-11-13T12:11:18.940Z,50.24
2022-11-13T12:13:24.409Z,50.49
2022-11-13T12:15:15.193Z,50.42
2022-11-13T12:16:39.107Z,50.39
2022-11-13T12:18:10.314Z,50.49
2022-11-13T12:19:43.156Z,50.71
2022-11-13T12:21:23.601Z,50.80
2022-11-13T12:23:10.734Z,51.02
2022-11-13T12:24:49.867Z,51.20
2022-11-13T12:26:26.928Z,51.15
2022-11-13T12:28:05.724Z,51.26
2022-11-13T12:29:38.663Z,51.39
2022-11-13T12:31:18.319Z,51.50
2022-11-13T12:33:05.436Z,51.68
2022-11-13T12:34:54.877Z,51.88
2022-11-13T12:36:16.402Z,51.92
2022-11-13T12:37:48.718Z,52.27
2022-11-13T12:39:24.386Z,52.17
2022-11-13T12:41:01.330Z,52.32
2022-11-13T12:42:49.049Z,52.40
2022-11-13T12:44:26.285Z,52.80
2022-11-13T12:46:00.731Z,52.80
2022-11-13T12:47:21.955Z,52.67
2022-11-13T12:48:47.974Z,52.81
2022-11-13T12:50:32.710Z,52.83
2022-11-13T12:51:58.103Z,52.93
2022-11-13T12:53:28.110Z,53.10
2022-11-13T12:54:49.046Z,53.21
2022-11-13T12:56:17.199Z,53.28
2022-11-13T12:57:47.523Z,53.31
2022-11-13T12:59:35.036Z,53.50
2022-11-13T13:01:18.851Z,53.58
2022-11-13T13:02:51.062Z,53.50
2022-11-13T13:04:30.098Z,53.68
2022-11-13T13:06:35.677Z,53.91
2022-11-13T13:08:11.043Z,53.80
2022-11-13T13:09:59.574Z,53.96
2022-11-13T13:11:54.666Z,53.99
2022-11-13T13:13:43.572Z,53.95
2022-11-13T13:15:37.675Z,54.09
2022-11-13T13:17:13.958Z,54.32
2022-11-13T13:18:37.255Z,54.36
2022-11-13T13:20:04.868Z,54.37
2022-11-13T13:21:26.341Z,54.39
2022-11-13T13:22:57.631Z,54.34
2022-11-13T13:24:29.199Z,54.63
2022-11-13T13:25:49.881Z,54.67
2022-11-13T13:27:33.920Z,54.54
2022-11-13T13:28:56.792Z,54.62
2022-11-13T13:30:20.754Z,54.58
2022-11-13T13:32:10.151Z,54.75
2022-11-13T13:33:45.133Z,54.81
2022-11-13T13:35:18.796Z,54.78
2022-11-13T13:36:54.606Z,54.88
2022-11-13T13:38:33.983Z,54.81
2022-11-13T13:39:57.588Z,55.11
2022-11-13T13:41:39.781Z,55.04
2022-11-13T13:43:00.734Z,55.14
2022-11-13T13:44:26.909Z,55.04
2022-11-13T13:46:01.994Z,55.02
2022-11-13T13:47:47.633Z,55.21
2022-11-13T13:49:14.682Z,55.19
2022-11-13T13:50:42.102Z,55.35
2022-11-13T13:52:02.840Z,55.31
2022-11-13T13:53:30.705Z,55.41
2022-11-13T13:54:54.779Z,55.49
2022-11-13T13:56:17.075Z,55.41
2022-11-13T13:57:42.286Z,55.52
2022-11-13T13:59:03.097Z,55.67
2022-11-13T14:00:24.803Z,55.59
2022-11-13T14:01:58.634Z,55.87
2022-11-13T14:03:22.805Z,55.90
2022-11-13T14:04:46.660Z,56.11
2022-11-13T14:06:24.320Z,56.04
2022-11-13T14:07:48.250Z,56.06
2022-11-13T14:09:19.488Z,56.08
2022-11-13T14:10:40.550Z,56.10
2022-11-13T14:12:09.938Z,56.15
2022-11-13T14:13:30.901Z,56.26
2022-11-13T14:14:52.256Z,56.27
2022-11-13T14:16:16.339Z,56.37
2022-11-13T14:17:40.374Z,56.43
2022-11-13T14:19:05.319Z,56.69
2022-11-13T14:20:26.210Z,56.61
2022-11-13T14:21:52.182Z,56.63
2022-11-13T14:23:25.085Z,56.73
2022-11-13T14:24:50.909Z,56.68
2022-11-13T14:26:12.180Z,56.66
2022-11-13T14:27:33.720Z,56.77
2022-11-13T14:29:02.679Z,56.80
2022-11-13T14:30:28.856Z,56.76
2022-11-13T14:31:51.266Z,56.78
2022-11-13T14:33:22.568Z,56.92
2022-11-13T14:34:45.536Z,56.96
2022-11-13T14:36:07.010Z,57.07
2022-11-13T14:37:39.504Z,57.21
2022-11-13T14:39:00.604Z,57.08
2022-11-13T14:40:27.712Z,57.08
2022-11-13T14:41:54.500Z,57.21
2022-11-13T14:43:24.024Z,57.44
2022-11-13T14:44:45.199Z,57.27
2022-11-13T14:46:22.768Z,57.29
2022-11-13T14:47:55.143Z,57.32
2022-11-13T14:49:28.618Z,57.44
2022-11-13T14:50:55.901Z,57.63
2022-11-13T14:52:28.074Z,57.62
2022-11-13T14:53:57.836Z,57.60
2022-11-13T14:55:27.334Z,57.72
2022-11-13T14:56:48.365Z,57.80
2022-11-13T14:58:13.950Z,57.84
2022-11-13T14:59:35.710Z,57.86
2022-11-13T15:01:12.414Z,57.95
2022-11-13T15:02:33.442Z,57.80
2022-11-13T15:03:54.270Z,57.87
2022-11-13T15:05:15.320Z,57.92
2022-11-13T15:06:40.911Z,58.15
2022-11-13T15:08:04.062Z,58.00
2022-11-13T15:09:25.716Z,58.01
2022-11-13T15:10:46.753Z,58.06
2022-11-13T15:12:11.362Z,58.22
2022-11-13T15:13:32.339Z,58.20
2022-11-13T15:14:53.154Z,58.28
2022-11-13T15:16:21.588Z,58.21
2022-11-13T15:17:43.649Z,58.19
2022-11-13T15:19:07.062Z,58.39
2022-11-13T15:20:34.188Z,58.38
2022-11-13T15:22:25.345Z,58.33
2022-11-13T15:23:39.284Z,58.22
2022-11-13T15:25:00.037Z,58.50
2022-11-13T15:26:24.290Z,58.50
2022-11-13T15:27:45.460Z,58.51
2022-11-13T15:29:07.092Z,58.52
2022-11-13T15:30:27.770Z,58.62
2022-11-13T15:31:48.361Z,58.68
2022-11-13T15:33:16.577Z,58.78
2022-11-13T15:34:39.299Z,58.78
2022-11-13T15:36:02.496Z,58.63
2022-11-13T15:37:23.397Z,58.79
2022-11-13T15:38:45.222Z,58.79
2022-11-13T15:40:06.539Z,58.85
2022-11-13T15:41:29.679Z,58.90
2022-11-13T15:42:50.986Z,59.00
2022-11-13T15:44:14.439Z,59.08
2022-11-13T15:45:38.685Z,58.95
2022-11-13T15:47:02.348Z,58.93
2022-11-13T15:48:23.427Z,59.14
2022-11-13T15:49:56.637Z,59.17
2022-11-13T15:51:29.906Z,59.04
2022-11-13T15:52:52.732Z,59.23
2022-11-13T15:54:27.964Z,59.25
2022-11-13T15:55:48.706Z,59.31
2022-11-13T15:57:19.859Z,59.42
2022-11-13T15:58:40.903Z,59.69
2022-11-13T16:00:02.214Z,59.65
2022-11-13T16:01:23.263Z,59.75
2022-11-13T16:02:44.082Z,59.78
2022-11-13T16:04:06.140Z,59.71
2022-11-13T16:05:29.970Z,59.76
2022-11-13T16:06:50.888Z,59.88
2022-11-13T16:08:15.185Z,60.02
2022-11-13T16:09:35.937Z,60.02
2022-11-13T16:10:56.429Z,60.17
2022-11-13T16:12:17.243Z,60.16
2022-11-13T16:13:41.579Z,60.29
2022-11-13T16:15:02.474Z,60.37
2022-11-13T16:16:30.537Z,60.53
2022-11-13T16:17:56.974Z,60.43
2022-11-13T16:19:24.189Z,60.58
2022-11-13T16:20:45.156Z,60.71
2022-11-13T16:22:19.655Z,60.68
2022-11-13T16:23:41.285Z,60.84
2022-11-13T16:25:04.696Z,60.82
2022-11-13T16:26:41.446Z,60.85
2022-11-13T16:28:02.655Z,61.01
2022-11-13T16:29:24.614Z,61.02
2022-11-13T16:30:52.731Z,61.09
2022-11-13T16:32:24.367Z,61.16
2022-11-13T16:33:48.518Z,61.12
2022-11-13T16:35:20.374Z,61.14
2022-11-13T16:36:42.007Z,61.25
2022-11-13T16:38:03.413Z,61.19
2022-11-13T16:39:24.610Z,61.40
2022-11-13T16:40:46.012Z,61.50
2022-11-13T16:42:06.855Z,61.56
2022-11-13T16:43:28.077Z,61.66
2022-11-13T16:44:51.471Z,61.73
2022-11-13T16:46:29.504Z,61.88
2022-11-13T16:47:55.390Z,62.00
2022-11-13T16:49:19.238Z,62.06
2022-11-13T16:50:43.160Z,62.17
2022-11-13T16:52:04.282Z,62.12
2022-11-13T16:53:24.939Z,62.40
2022-11-13T16:54:46.153Z,62.52
2022-11-13T16:56:30.806Z,62.55
2022-11-13T16:57:51.622Z,62.79
2022-11-13T16:59:14.581Z,62.83
2022-11-13T17:00:35.856Z,62.65
2022-11-13T17:01:57.051Z,62.88
2022-11-13T17:03:18.180Z,62.88
2022-11-13T17:04:39.377Z,62.94
2022-11-13T17:06:00.200Z,62.92
2022-11-13T17:07:21.366Z,63.01
2022-11-13T17:08:42.027Z,63.07
2022-11-13T17:10:29.550Z,63.04
2022-11-13T17:11:45.164Z,63.09
2022-11-13T17:13:06.049Z,63.19
2022-11-13T17:14:26.833Z,63.32
2022-11-13T17:15:47.490Z,63.33
2022-11-13T17:17:12.487Z,63.25
2022-11-13T17:18:34.548Z,63.24
2022-11-13T17:19:55.578Z,63.16
2022-11-13T17:21:30.441Z,63.31
2022-11-13T17:22:51.218Z,63.29
2022-11-13T17:24:11.926Z,63.22
2022-11-13T17:25:36.127Z,63.41
2022-11-13T17:26:56.537Z,63.29
2022-11-13T17:28:17.511Z,63.54
2022-11-13T17:29:38.781Z,63.56
2022-11-13T17:31:05.114Z,63.67
2022-11-13T17:32:26.868Z,63.65
2022-11-13T17:33:47.745Z,63.68
2022-11-13T17:35:11.549Z,63.76
2022-11-13T17:36:32.683Z,63.76
2022-11-13T17:37:56.191Z,63.91
2022-11-13T17:39:19.480Z,63.66
2022-11-13T17:40:40.287Z,63.75
2022-11-13T17:42:01.339Z,63.79
2022-11-13T17:43:22.560Z,63.90
2022-11-13T17:44:43.747Z,64.04
2022-11-13T17:46:05.824Z,64.10
2022-11-13T17:47:26.728Z,64.26
2022-11-13T17:48:48.241Z,64.17
2022-11-13T17:50:09.215Z,64.24
2022-11-13T17:51:30.184Z,64.48
2022-11-13T17:52:50.603Z,64.23
2022-11-13T17:54:11.399Z,64.43
2022-11-13T17:55:32.129Z,64.36
2022-11-13T17:56:52.863Z,64.36
2022-11-13T17:58:13.713Z,64.35
2022-11-13T17:59:34.713Z,64.38
2022-11-13T18:01:04.305Z,64.52
2022-11-13T18:02:25.448Z,64.41
2022-11-13T18:03:46.717Z,64.61
2022-11-13T18:05:09.418Z,64.42
2022-11-13T18:06:30.110Z,64.43
2022-11-13T18:07:51.208Z,64.59
2022-11-13T18:09:12.080Z,64.55
2022-11-13T18:10:33.614Z,64.56
2022-11-13T18:11:54.272Z,64.53
2022-11-13T18:13:14.848Z,64.50
2022-11-13T18:14:35.671Z,64.54
2022-11-13T18:15:58.748Z,64.58
2022-11-13T18:17:20.639Z,64.56
2022-11-13T18:18:41.874Z,64.53
2022-11-13T18:20:03.178Z,64.54
2022-11-13T18:21:28.328Z,64.63